Tiempo atmosférico en la estación meteorológica de Benasque, Huesca (1120 m.)



Fecha
DESCASC
Temp. máxima en grados centígrados (hora)
DESCASC
Temp. mínima en grados centígrados (hora)
DESCASC
Temp. media en grados centígrados
DESCASC
Racha de viento máxima en m/sg (hora)
DESCASC
Velocidad máxima media en intervalos de 10 minutos(hora)
DESCASC
Precipitaciones diarias en mm
DESCASC
Precipitaciones de 00:00 a 06:00 en mm
DESCASC
Precipitaciones de 06:00 a 12:00 en mm
DESCASC
Precipitaciones de 12:00 a 18:00 en mm
DESCASC
Precipitaciones de 18:00 a 24:00 en mm
DESCASC
16-04-2019 15.5 (17:30) 5.4 (06:10) 10.5 9.72 (14:40) 6.11 (14:40) 4 4 0 0 0
15-04-2019 19.9 (14:10) 2.7 (06:40) 11.3 10.28 (22:00) 5.56 (13:50) 11.6 0 0 0 11.6
14-04-2019 18.5 (15:50) -0.3 (00:00) 9.1 11.11 (18:10) 5.83 (17:40) 0 0 0 0 0
13-04-2019 16.7 (14:40) -2 (-00:0) 7.4 9.72 (17:40) 5.28 (17:10) 0 0 0 0 0
12-04-2019 12.6 (16:00) 5.6 (00:00) 9.1 14.72 (12:50) 8.61 (12:40) 0.2 0.2 0 0 0
11-04-2019 9.2 (14:10) 4.5 (00:00) 6.8 13.89 (12:40) 7.78 (11:10) 0.4 0.2 0 0 0.2
10-04-2019 10.8 (16:20) -1.8 (-00:0) 4.5 13.33 (15:40) 7.22 (15:40) 0.4 0 0 0 0.4
09-04-2019 14.1 (14:20) 0.9 (00:00) 7.5 8.33 (15:40) 4.72 (16:30) 1 0 0 0.2 0.8
08-04-2019 14 (18:20) -1.1 (-00:0) 6.4 7.22 (19:10) 4.17 (15:40) 0 0 0 0 0
07-04-2019 11.9 (16:40) -2.6 (-00:0) 4.6 6.94 (14:00) 3.89 (14:00) 1.4 1.4 0 0 0
06-04-2019 9 (15:50) -0.1 (00:00) 4.4 7.5 (17:40) 4.44 (17:00) 13.6 8.2 4.2 0.2 1
05-04-2019 5.4 (16:00) -1.4 (-00:0) 2 5.83 (14:30) 3.33 (14:40) 9.8 0 0.4 0.2 9.2
04-04-2019 10.6 (16:30) -5.9 (-00:0) 2.4 8.33 (15:10) 5.56 (15:10) 0 0 0 0 0
03-04-2019 9 (17:40) -0.9 (-00:0) 4.1 8.33 (17:10) 3.89 (12:40) 4.2 0.2 4 0 0
02-04-2019 16 (14:30) 3.1 (00:00) 9.5 8.06 (14:40) 4.44 (14:10) 0.4 0 0.2 0.2 0
01-04-2019 12.4 (17:40) 4.5 (00:00) 8.4 6.67 (12:50) 4.72 (12:50) 2.2 0 0 1.4 0.8
31-03-2019 15.3 (17:10) -2.8 (-00:0) 6.3 8.06 (14:10) 5.28 (14:30) 0 0 0 0 0
30-03-2019 15.3 (14:30) -2.1 (-00:0) 6.6 9.72 (15:20) 5.56 (16:30) 0 0 0 0 0
29-03-2019 11 (14:40) -1.2 (-00:0) 4.9 6.94 (13:00) 3.89 (12:50) 0 0 0 0 0
28-03-2019 16.2 (12:50) -4.2 (-00:0) 6 13.61 (15:20) 8.06 (15:30) 0 0 0 0 0
27-03-2019 14 (14:50) -3.3 (-00:0) 5.4 15.28 (18:20) 8.61 (18:20) 0 0 0 0 0
26-03-2019 12.8 (14:20) 5.8 (00:00) 9.3 18.89 (12:10) 10.28 (18:30) 0 0 0 0 0
25-03-2019 16.1 (12:00) -1 (-00:0) 7.6 18.06 (20:00) 9.44 (18:50) 0 0 0 0 0
24-03-2019 17.8 (13:10) -1.9 (-00:0) 7.9 14.44 (17:50) 7.5 (17:50) 0 0 0 0 0
23-03-2019 19 (15:00) -1.9 (-00:0) 8.6 11.67 (17:00) 6.39 (18:00) 0 0 0 0 0
22-03-2019 16.9 (16:50) -4.2 (-00:0) 6.3 7.5 (14:10) 4.72 (14:20) 0 0 0 0 0
21-03-2019 14.2 (15:20) -6.7 (-00:0) 3.8 8.33 (15:10) 5.28 (15:10) 0 0 0 0 0
20-03-2019 11.2 (13:20) -1.6 (-00:0) 4.8 17.22 (01:50) 8.61 (01:50) 0 0 0 0 0
19-03-2019 8.1 (14:10) 1.2 (00:00) 4.7 14.72 (15:00) 8.06 (14:50) 0 0 0 0 0

Gráficas

Temp. máximas Temp. mínimas Temp. medias Precipitaciones Rachas de viento máximas Velocidades máximas media en intervalos de 10 minutos

Datos horarios

Fecha y hora oficial Temperatura (ºC) Velocidad del viento (km/h) Dirección del viento Racha (km/h) Dirección de racha Precipitación (mm) Presión (hPa) Tendencia (hPa) Humedad (%)
2019-04-17 23:00:00 8.5 0 Calma 6 Este 0 -- -- 82
2019-04-17 22:00:00 9.8 0 Calma 4 Norte 0 -- -- 80
2019-04-17 21:00:00 12.1 0 Calma 7 Sur 0 -- -- 71
2019-04-17 20:00:00 15.3 3 Sur 16 Sur 0 -- -- 59
2019-04-17 19:00:00 16.9 12 Sudoeste 21 Sudoeste 0 -- -- 50
2019-04-17 18:00:00 17.5 13 Sudoeste 28 Oeste 0 -- -- 49
2019-04-17 17:00:00 18.5 14 Oeste 30 Oeste 0 -- -- 46
2019-04-17 16:00:00 18.5 15 Sudoeste 23 Sudoeste 0 -- -- 41
2019-04-17 15:00:00 16.5 11 Sudoeste 18 Sudoeste 0 -- -- 50
2019-04-17 14:00:00 15.4 12 Sudoeste 24 Sudoeste 0 -- -- 56
2019-04-17 13:00:00 15.1 12 Sudoeste 22 Sudoeste 0 -- -- 51
2019-04-17 12:00:00 15.3 4 Oeste 10 Sudoeste 0 -- -- 52
2019-04-17 11:00:00 13.9 3 Nordeste 8 Sudeste 0 -- -- 55
2019-04-17 10:00:00 11 2 Oeste 7 Sudeste 0 -- -- 63
2019-04-17 09:00:00 5.6 2 Nordeste 6 Nordeste 0 -- -- 88
2019-04-17 08:00:00 4.3 0 Calma 5 Este 0 -- -- 90
2019-04-17 07:00:00 5.8 0 Calma 3 Sudeste 0 -- -- 90
2019-04-17 06:00:00 7.2 0 Calma 3 Sur 0 -- -- 90
2019-04-17 05:00:00 7.4 0 Calma 6 Sudoeste 0 -- -- 89
2019-04-17 04:00:00 7.6 4 Sudoeste 7 Sudoeste 0 -- -- 87
2019-04-17 03:00:00 7.9 2 Nordeste 5 Norte 0 -- -- 86
2019-04-17 02:00:00 6.8 3 Sudeste 5 Sur 0 -- -- 89
2019-04-17 01:00:00 6.5 0 Calma 9 Sudoeste 0 -- -- 91
2019-04-17 00:00:00 9.6 3 Sudeste 5 Sudeste 0 -- -- 81
2019-04-16 23:00:00 10.5 5 Sudoeste 10 Sur 0 -- -- 74
2019-04-16 22:00:00 10.1 2 Sudeste 6 Sur 0 -- -- 77
2019-04-16 21:00:00 9.7 3 Sur 13 Oeste 0 -- -- 75
2019-04-16 20:00:00 11.7 9 Oeste 19 Oeste 0 -- -- 65
2019-04-16 19:00:00 13.4 5 Sur 21 Oeste 0 -- -- 56
2019-04-16 18:00:00 14 17 Oeste 27 Sudoeste 0 -- -- 56
2019-04-16 17:00:00 14.2 16 Oeste 29 Oeste 0 -- -- 56
2019-04-16 16:00:00 14.5 21 Oeste 30 Sudoeste 0 -- -- 59
2019-04-16 15:00:00 13.5 20 Sudoeste 35 Oeste 0 -- -- 62
2019-04-16 14:00:00 12.5 19 Oeste 31 Sudoeste 0 -- -- 67
2019-04-16 13:00:00 14.2 21 Oeste 28 Sudoeste 0 -- -- 61
2019-04-16 12:00:00 13 17 Sudoeste 27 Sudoeste 0 -- -- 66
2019-04-16 11:00:00 12.9 8 Sudoeste 15 Sudoeste 0 -- -- 63
2019-04-16 10:00:00 11 4 Oeste 10 Oeste 0 -- -- 70
2019-04-16 09:00:00 7.5 2 Este 10 Oeste 0 -- -- 96
2019-04-16 08:00:00 6.6 0 Calma 3 Sudeste 0 -- -- 97
2019-04-16 07:00:00 6.2 0 Calma 4 Sudoeste 0 -- -- 97
2019-04-16 06:00:00 5.6 2 Sur 4 Sudoeste 0 -- -- 97
2019-04-16 05:00:00 6.8 3 Sudeste 13 Sudoeste 0 -- -- 95
2019-04-16 04:00:00 7.3 9 Sudoeste 13 Sudoeste 0.6 -- -- 94
2019-04-16 03:00:00 7.2 4 Sudeste 11 Sur 0 -- -- 94
2019-04-16 02:00:00 7.7 6 Sudoeste 27 Este 0 -- -- 87
2019-04-16 01:00:00 8.8 15 Nordeste 30 Este 3.4 -- -- 81
2019-04-16 00:00:00 8.6 6 Sudoeste 27 Sudoeste 0.8 -- -- 90
2019-04-15 23:00:00 9.4 14 Nordeste 31 Sur 5.6 -- -- 80
2019-04-15 22:00:00 10.3 18 Sudoeste 37 Sur 5.2 -- -- 84
2019-04-15 21:00:00 13.3 5 Sudoeste 25 Oeste 0 -- -- 66
2019-04-15 20:00:00 14.6 15 Oeste 31 Sudoeste 0 -- -- 61
2019-04-15 19:00:00 16.4 15 Oeste 24 Sudoeste 0 -- -- 55
2019-04-15 18:00:00 17.1 13 Sudoeste 24 Sudoeste 0 -- -- 51
2019-04-15 17:00:00 17 14 Sudoeste 27 Sudoeste 0 -- -- 52
2019-04-15 16:00:00 18.6 14 Sudoeste 27 Sudoeste 0 -- -- 45
2019-04-15 15:00:00 19.3 12 Sudoeste 31 Oeste 0 -- -- 41
2019-04-15 14:00:00 18.8 16 Oeste 28 Sudoeste 0 -- -- 41
2019-04-15 13:00:00 17.3 12 Sudoeste 21 Sudoeste 0 -- -- 46
2019-04-15 12:00:00 16.3 9 Sudoeste 15 Sudoeste 0 -- -- 46
2019-04-15 11:00:00 15.3 3 Nordeste 4 Este 0 -- -- 47
2019-04-15 10:00:00 12.1 0 Calma 6 Nordeste 0 -- -- 57
2019-04-15 09:00:00 5.1 3 Sudoeste 8 Oeste 0 -- -- 86
2019-04-15 08:00:00 2.9 0 Calma 6 Este 0 -- -- 89
2019-04-15 07:00:00 2.8 3 Nordeste 7 Oeste 0 -- -- 90
2019-04-15 06:00:00 3.3 0 Calma 7 Sudeste 0 -- -- 88
2019-04-15 05:00:00 3.3 3 Sudoeste 6 Oeste 0 -- -- 88
2019-04-15 04:00:00 4 3 Este 6 Sudeste 0 -- -- 88
2019-04-15 03:00:00 4.3 0 Calma 4 Nordeste 0 -- -- 87
2019-04-15 02:00:00 5 2 Sur 7 Norte 0 -- -- 84
2019-04-15 01:00:00 6.5 3 Este 9 Sur 0 -- -- 78
2019-04-15 00:00:00 7 5 Este 9 Nordeste 0 -- -- 75
2019-04-14 23:00:00 8.2 3 Oeste 8 Sudoeste 0 -- -- 73
2019-04-14 22:00:00 10.1 4 Sudoeste 10 Sudoeste 0 -- -- 65
2019-04-14 21:00:00 12.3 5 Oeste 8 Norte 0 -- -- 59
2019-04-14 20:00:00 15 7 Norte 37 Nordeste 0 -- -- 51
2019-04-14 19:00:00 16.5 13 Nordeste 40 Este 0 -- -- 49
2019-04-14 18:00:00 16.1 18 Nordeste 40 Este 0 -- -- 48
2019-04-14 17:00:00 16.4 18 Nordeste 35 Este 0 -- -- 49
2019-04-14 16:00:00 18.5 7 Este 21 Este 0 -- -- 43
2019-04-14 15:00:00 17.3 9 Norte 21 Este 0 -- -- 48
2019-04-14 14:00:00 17.2 10 Oeste 21 Noroeste 0 -- -- 45
2019-04-14 13:00:00 16.2 6 Sudoeste 21 Sudoeste 0 -- -- 36
2019-04-14 12:00:00 17 5 Sudoeste 15 Sudoeste 0 -- -- 33
2019-04-14 11:00:00 15.5 4 Oeste 28 Norte 0 -- -- 36
2019-04-14 10:00:00 13.2 15 Nordeste 29 Este 0 -- -- 36
2019-04-14 09:00:00 2.7 2 Nordeste 11 Sudoeste 0 -- -- 66
2019-04-14 08:00:00 1.2 5 Este 8 Nordeste 0 -- -- 69
2019-04-14 07:00:00 0.4 4 Este 8 Sudeste 0 -- -- 68
2019-04-14 06:00:00 0.9 4 Sur 11 Nordeste 0 -- -- 68
2019-04-14 05:00:00 0.6 5 Sudoeste 13 Oeste 0 -- -- 65
2019-04-14 04:00:00 0.2 4 Sudeste 10 Sudeste 0 -- -- 64
2019-04-14 03:00:00 0.6 4 Nordeste 11 Oeste 0 -- -- 61
2019-04-14 02:00:00 0.1 4 Sudeste 7 Sudeste 0 -- -- 58
2019-04-14 01:00:00 1.3 3 Este 8 Este 0 -- -- 53
2019-04-14 00:00:00 1.7 3 Sudoeste 7 Nordeste 0 -- -- 53
2019-04-13 23:00:00 3.7 2 Sudeste 10 Este 0 -- -- 43
2019-04-13 22:00:00 9.6 9 Nordeste 21 Nordeste 0 -- -- 30
2019-04-13 21:00:00 10.7 8 Nordeste 22 Norte 0 -- -- 32
2019-04-13 20:00:00 12.5 8 Nordeste 23 Nordeste 0 -- -- 24
2019-04-13 19:00:00 15.1 11 Nordeste 26 Nordeste 0 -- -- 19
2019-04-13 18:00:00 15.7 14 Nordeste 35 Nordeste 0 -- -- 16
2019-04-13 17:00:00 15.9 14 Este 29 Nordeste 0 -- -- 14
2019-04-13 16:00:00 15.8 15 Este 27 Este 0 -- -- 14
2019-04-13 15:00:00 16.3 10 Nordeste 25 Este 0 -- -- 14
2019-04-13 14:00:00 16 11 Nordeste 26 Nordeste 0 -- -- 14
2019-04-13 13:00:00 15.5 9 Nordeste 26 Este 0 -- -- 14
2019-04-13 12:00:00 14.5 11 Nordeste 24 Norte 0 -- -- 12
2019-04-13 11:00:00 13 13 Nordeste 26 Nordeste 0 -- -- 11
2019-04-13 10:00:00 9.2 6 Sudoeste 15 Sudoeste 0 -- -- 26
2019-04-13 09:00:00 -0.3 5 Este 13 Sudoeste 0 -- -- 54
2019-04-13 08:00:00 -1.3 3 Sudeste 10 Sudoeste 0 -- -- 59
2019-04-13 07:00:00 -0.7 6 Oeste 20 Sudoeste 0 -- -- 53
2019-04-13 06:00:00 -0.2 6 Sudoeste 26 Sudoeste 0 -- -- 53
2019-04-13 05:00:00 0 6 Sudoeste 14 Sudoeste 0 -- -- 43
2019-04-13 04:00:00 -1.2 2 Este 10 Sudeste 0 -- -- 57
2019-04-13 03:00:00 -1.2 3 Este 8 Este 0 -- -- 56
2019-04-13 02:00:00 0.1 0 Calma 9 Este 0 -- -- 47
2019-04-13 01:00:00 2.3 2 Sur 26 Este 0 -- -- 42
2019-04-13 00:00:00 7.8 14 Nordeste 37 Nordeste 0 -- -- 15
2019-04-12 23:00:00 8 17 Nordeste 46 Este 0 -- -- 20
2019-04-12 22:00:00 7.8 15 Nordeste 37 Este 0 -- -- 32
2019-04-12 21:00:00 7.9 21 Nordeste 40 Este 0 -- -- 42
2019-04-12 20:00:00 8.6 16 Nordeste 35 Este 0 -- -- 40
2019-04-12 19:00:00 10.7 15 Nordeste 37 Este 0 -- -- 36
2019-04-12 18:00:00 11.4 18 Este 39 Nordeste 0 -- -- 31
2019-04-12 17:00:00 12.6 18 Nordeste 44 Nordeste -- -- -- 31
2019-04-12 16:00:00 12.6 17 Nordeste 45 Nordeste 0 -- -- 24
2019-04-12 15:00:00 12.5 21 Nordeste 49 Este 0 -- -- 19
2019-04-12 14:00:00 11.3 29 Este 50 Este 0 -- -- 22
2019-04-12 13:00:00 10.9 30 Este 53 Este 0 -- -- 21
2019-04-12 12:00:00 10.5 30 Nordeste 50 Nordeste 0 -- -- 19
2019-04-12 11:00:00 10.1 22 Este 46 Nordeste 0 -- -- 18
2019-04-12 10:00:00 8.5 22 Este 43 Este 0 -- -- 27
2019-04-12 09:00:00 6.4 20 Nordeste 39 Este 0 -- -- 36
2019-04-12 08:00:00 5.8 19 Nordeste 40 Este 0 -- -- 43
2019-04-12 07:00:00 5.9 18 Nordeste 52 Nordeste 0 -- -- 46
2019-04-12 06:00:00 6.2 19 Este 38 Este 0 -- -- 49
2019-04-12 05:00:00 6.5 21 Nordeste 44 Este 0 -- -- 52
2019-04-12 04:00:00 7.1 23 Nordeste 44 Este 0 -- -- 52
2019-04-12 03:00:00 6.4 16 Este 44 Este 0 -- -- 55
2019-04-12 02:00:00 6 14 Este 40 Nordeste 0.2 -- -- 61
2019-04-12 01:00:00 5.8 15 Este 44 Este 0 -- -- 69
2019-04-12 00:00:00 5.9 14 Este 41 Nordeste 0 -- -- 69
2019-04-11 23:00:00 6.5 17 Nordeste 39 Este 0.2 -- -- 64
2019-04-11 22:00:00 6.6 16 Nordeste 40 Este 0 -- -- 63
2019-04-11 21:00:00 6.7 17 Nordeste 39 Nordeste 0 -- -- 61
2019-04-11 20:00:00 7.3 16 Nordeste 33 Nordeste 0 -- -- 56
2019-04-11 19:00:00 7.3 12 Nordeste 41 Nordeste 0 -- -- 57
2019-04-11 18:00:00 7.4 13 Nordeste 31 Nordeste 0 -- -- 56
2019-04-11 17:00:00 7.5 21 Nordeste 46 Este 0 -- -- 54
2019-04-11 16:00:00 8.3 22 Nordeste 36 Nordeste 0 -- -- 49
2019-04-11 15:00:00 8.3 16 Nordeste 36 Este 0 -- -- 47
2019-04-11 14:00:00 8.7 17 Este 37 Este 0 -- -- 42
2019-04-11 13:00:00 8 20 Este 50 Este 0 -- -- 36
2019-04-11 12:00:00 7.8 26 Este 45 Este 0 -- -- 32
2019-04-11 11:00:00 6.9 24 Nordeste 47 Este 0 -- -- 34
2019-04-11 10:00:00 6.1 16 Nordeste 44 Este 0 -- -- 37
2019-04-11 09:00:00 5.3 23 Nordeste 49 Nordeste 0 -- -- 37
2019-04-11 08:00:00 5.1 18 Este 40 Nordeste 0 -- -- 40
2019-04-11 07:00:00 5.1 19 Nordeste 40 Este 0 -- -- 44
2019-04-11 06:00:00 4.9 15 Este 38 Nordeste 0 -- -- 46
2019-04-11 05:00:00 5.1 17 Nordeste 37 Este 0 -- -- 50
2019-04-11 04:00:00 5.3 15 Este 35 Este 0 -- -- 55
2019-04-11 03:00:00 5.5 17 Este 37 Este 0 -- -- 57
2019-04-11 02:00:00 5.9 10 Nordeste 31 Este 0 -- -- 58
2019-04-11 01:00:00 4.6 7 Sudoeste 23 Sur 0.2 -- -- 72
2019-04-11 00:00:00 4.7 5 Sudoeste 41 Este 0.2 -- -- 76
2019-04-10 23:00:00 6.8 19 Nordeste 40 Nordeste 0 -- -- 53
2019-04-10 22:00:00 6.4 20 Nordeste 40 Este 0 -- -- 57
2019-04-10 21:00:00 7 19 Nordeste 39 Nordeste 0 -- -- 49
2019-04-10 20:00:00 6.7 17 Nordeste 40 Nordeste 0 -- -- 52
2019-04-10 19:00:00 4.5 15 Nordeste 44 Nordeste 0.2 -- -- 79
2019-04-10 18:00:00 8.9 19 Nordeste 39 Nordeste 0 -- -- 44
2019-04-10 17:00:00 8.7 17 Nordeste 44 Este 0 -- -- 46
2019-04-10 16:00:00 9.7 17 Nordeste 48 Este 0 -- -- 43
2019-04-10 15:00:00 9.7 16 Nordeste 38 Este 0 -- -- 46
2019-04-10 14:00:00 10 17 Nordeste 36 Nordeste 0 -- -- 43
2019-04-10 13:00:00 9 14 Nordeste 33 Nordeste 0 -- -- 46
2019-04-10 12:00:00 7.9 14 Nordeste 29 Nordeste 0 -- -- 50
2019-04-10 11:00:00 8.9 15 Nordeste 36 Este 0 -- -- 44
2019-04-10 10:00:00 7.9 18 Nordeste 35 Este 0 -- -- 42
2019-04-10 09:00:00 2.8 10 Nordeste 26 Nordeste 0 -- -- 89
2019-04-10 08:00:00 -1.5 4 Sudoeste 8 Oeste 0 -- -- 98
2019-04-10 07:00:00 -1.5 4 Oeste 8 Sudoeste 0 -- -- 98
2019-04-10 06:00:00 -1.7 2 Nordeste 7 Sudoeste 0 -- -- 98
2019-04-10 05:00:00 -1 3 Oeste 6 Oeste 0 -- -- 98
2019-04-10 04:00:00 -0.9 0 Calma 6 Noroeste 0 -- -- 97
2019-04-10 03:00:00 -0.6 4 Sudeste 6 Sur 0 -- -- 96
2019-04-10 02:00:00 0 0 Calma 4 Sudeste 0 -- -- 96
2019-04-10 01:00:00 0.8 3 Sudeste 4 Sudeste 0 -- -- 95
2019-04-10 00:00:00 2.6 2 Sudeste 4 Sudeste 0 -- -- 92
2019-04-09 23:00:00 3.2 0 Calma 6 Sudeste 0 -- -- 92
2019-04-09 22:00:00 3.2 3 Sudeste 6 Sur 0 -- -- 91
2019-04-09 21:00:00 4.6 3 Sudeste 10 Norte 0 -- -- 88
2019-04-09 20:00:00 6.1 5 Este 25 Este 0.4 -- -- 73
2019-04-09 19:00:00 5.9 3 Este 28 Nordeste 0.4 -- -- 80
2019-04-09 18:00:00 9.8 10 Nordeste 26 Nordeste 0 -- -- 49
2019-04-09 17:00:00 11.4 9 Oeste 28 Sudoeste 0 -- -- 44
2019-04-09 16:00:00 13 8 Sudeste 30 Sudoeste 0.2 -- -- 47
2019-04-09 15:00:00 12.8 6 Sur 16 Sudoeste 0 -- -- 36
2019-04-09 14:00:00 12.5 8 Nordeste 23 Este 0 -- -- 34
2019-04-09 13:00:00 12.4 8 Nordeste 20 Este 0 -- -- 35
2019-04-09 12:00:00 11.3 7 Nordeste 22 Este 0 -- -- 38
2019-04-09 11:00:00 8.5 6 Oeste 14 Sudoeste 0 -- -- 54
2019-04-09 10:00:00 7.6 4 Nordeste 8 Nordeste 0 -- -- 72
2019-04-09 09:00:00 1.8 0 Calma 8 Oeste 0 -- -- 93
2019-04-09 08:00:00 1.1 3 Sudoeste 8 Oeste 0 -- -- 95
2019-04-09 07:00:00 1.8 0 Calma 5 Este 0 -- -- 92
2019-04-09 06:00:00 1.4 0 Calma 5 Oeste 0 -- -- 93
2019-04-09 05:00:00 1.9 2 Nordeste 10 Sudoeste 0 -- -- 91
2019-04-09 04:00:00 1.5 4 Sudeste 5 Sudeste 0 -- -- 91
2019-04-09 03:00:00 2 0 Calma 6 Este 0 -- -- 91
2019-04-09 02:00:00 1.9 0 Calma 6 Sudeste 0 -- -- 90
2019-04-09 01:00:00 1.6 3 Oeste 7 Sudeste 0 -- -- 90
2019-04-09 00:00:00 2.7 2 Este 9 Noroeste 0 -- -- 84
2019-04-08 23:00:00 4 3 Este 8 Norte 0 -- -- 82
2019-04-08 22:00:00 5.9 3 Nordeste 10 Norte 0 -- -- 75
2019-04-08 21:00:00 6.6 3 Sudeste 9 Noroeste 0 -- -- 72
2019-04-08 20:00:00 10.2 2 Sur 26 Sudoeste 0 -- -- 55
2019-04-08 19:00:00 11.8 9 Sudoeste 24 Sudoeste 0 -- -- 49
2019-04-08 18:00:00 13.3 11 Sudoeste 26 Sudoeste 0 -- -- 47
2019-04-08 17:00:00 11.7 6 Sudoeste 19 Sudoeste 0 -- -- 56
2019-04-08 16:00:00 11.8 12 Sudoeste 22 Sudoeste 0 -- -- 53
2019-04-08 15:00:00 12.7 8 Sudoeste 22 Sudoeste 0 -- -- 50
2019-04-08 14:00:00 12.7 8 Oeste 18 Sudoeste 0 -- -- 45
2019-04-08 13:00:00 12.1 7 Este 18 Sudoeste 0 -- -- 47
2019-04-08 12:00:00 9.3 11 Sudoeste 18 Oeste 0 -- -- 53
2019-04-08 11:00:00 9.6 3 Oeste 8 Oeste 0 -- -- 51
2019-04-08 10:00:00 6.5 5 Este 7 Este 0 -- -- 66
2019-04-08 09:00:00 2.1 3 Oeste 6 Oeste 0 -- -- 87
2019-04-08 08:00:00 0.6 0 Calma 3 Sur 0 -- -- 91
2019-04-08 07:00:00 0.5 0 Calma 10 Oeste 0 -- -- 92
2019-04-08 06:00:00 0.2 3 Sudeste 6 Sudoeste 0 -- -- 92
2019-04-08 05:00:00 -0.1 3 Este 9 Sudoeste 0 -- -- 92
2019-04-08 04:00:00 -0.5 2 Sudeste 5 Sudeste 0 -- -- 92
2019-04-08 03:00:00 -0.7 3 Sudoeste 6 Oeste 0 -- -- 93
2019-04-08 02:00:00 -0.7 2 Este 6 Sudoeste 0 -- -- 92
2019-04-08 01:00:00 0.2 0 Calma 5 Oeste 0 -- -- 89
2019-04-08 00:00:00 1.3 3 Sur 7 Este 0 -- -- 84
2019-04-07 23:00:00 1.1 4 Sudeste 9 Noroeste 0 -- -- 85
2019-04-07 22:00:00 2.7 4 Nordeste 10 Norte 0 -- -- 79
2019-04-07 21:00:00 4.5 6 Norte 15 Noroeste 0 -- -- 67
2019-04-07 20:00:00 6.3 8 Norte 16 Norte 0 -- -- 57
2019-04-07 19:00:00 10.1 8 Norte 22 Nordeste 0 -- -- 39
2019-04-07 18:00:00 10.3 9 Nordeste 25 Este 0 -- -- 37
2019-04-07 17:00:00 11.5 10 Nordeste 19 Este 0 -- -- 35
2019-04-07 16:00:00 10.6 9 Nordeste 19 Norte 0 -- -- 39
2019-04-07 15:00:00 11 8 Norte 23 Nordeste 0 -- -- 42
2019-04-07 14:00:00 9.4 14 Nordeste 25 Este 0 -- -- 44
2019-04-07 13:00:00 9 8 Nordeste 17 Nordeste 0 -- -- 48
2019-04-07 12:00:00 6.6 6 Norte 14 Norte 0 -- -- 62
2019-04-07 11:00:00 3.9 5 Norte 15 Nordeste 0 -- -- 80
2019-04-07 10:00:00 1.4 0 Calma 7 Oeste 0 -- -- 90
2019-04-07 09:00:00 -1.5 3 Oeste 6 Oeste 0 -- -- 97
2019-04-07 08:00:00 -2.5 0 Calma 7 Sudoeste 0 -- -- 98
2019-04-07 07:00:00 -1.4 3 Sudoeste 8 Sudoeste 0 -- -- 99
2019-04-07 06:00:00 -0.2 0 Calma 5 Nordeste 0 -- -- 99
2019-04-07 05:00:00 -0.2 3 Noroeste 6 Este 0 -- -- 99
2019-04-07 04:00:00 -0.1 3 Sudoeste 8 Oeste 0 -- -- 98
2019-04-07 03:00:00 0 0 Calma 4 Sudoeste 0 -- -- 98
2019-04-07 02:00:00 0 0 Calma 3 Sudoeste 0 -- -- 98
2019-04-07 01:00:00 0.1 0 Calma 3 Sudeste 1.4 -- -- 98
2019-04-07 00:00:00 0.4 3 Sudoeste 9 Sur 0.8 -- -- 97
2019-04-06 23:00:00 0.5 3 Sur 8 Oeste 0 -- -- 97
2019-04-06 22:00:00 0.9 2 Oeste 4 Sudeste 0 -- -- 96
2019-04-06 21:00:00 1.3 2 Norte 4 Sudeste 0 -- -- 93
2019-04-06 20:00:00 1.9 3 Sudeste 17 Sudoeste 0.2 -- -- 91
2019-04-06 19:00:00 2.5 6 Sur 20 Sudoeste 0 -- -- 86
2019-04-06 18:00:00 3.6 12 Oeste 27 Sudoeste 0 -- -- 77
2019-04-06 17:00:00 5.6 16 Sudoeste 24 Sudoeste 0 -- -- 60
2019-04-06 16:00:00 7.2 7 Oeste 13 Sudoeste 0 -- -- 55
2019-04-06 15:00:00 4.7 10 Sudoeste 19 Sudoeste 0 -- -- 74
2019-04-06 14:00:00 4.2 8 Sudoeste 16 Sudoeste 0.2 -- -- 76
2019-04-06 13:00:00 4 4 Sudoeste 10 Sudoeste 0 -- -- 81
2019-04-06 12:00:00 2.6 3 Noroeste 9 Norte 0.4 -- -- 88
2019-04-06 11:00:00 1.1 3 Norte 8 Norte 2 -- -- 95
2019-04-06 10:00:00 1.1 3 Norte 8 Norte 1.2 -- -- 97
2019-04-06 09:00:00 0.4 3 Norte 8 Norte 0.4 -- -- 98
2019-04-06 08:00:00 0.1 4 Norte 6 Norte 0.2 -- -- 99
2019-04-06 07:00:00 0 0 Calma 5 Norte 0 -- -- 99
2019-04-06 06:00:00 -0.1 0 Calma 2 Norte 0 -- -- 99
2019-04-06 05:00:00 0 0 Calma 6 Norte 1.4 -- -- 99
2019-04-06 04:00:00 0.1 0 Calma 8 Norte 2.2 -- -- 98
2019-04-06 03:00:00 0 0 Calma 0 Calma 1.2 -- -- 98
2019-04-06 02:00:00 0 0 Calma 2 Oeste 1.4 -- -- 98
2019-04-06 01:00:00 0 0 Calma 2 Oeste 2 -- -- 98
2019-04-06 00:00:00 0.1 0 Calma 3 Sudoeste 1.6 -- -- 97
2019-04-05 23:00:00 0.1 0 Calma 4 Noroeste 2.4 -- -- 97
2019-04-05 22:00:00 0.6 0 Calma 7 Este 2.4 -- -- 95
2019-04-05 21:00:00 2.4 3 Sur 15 Sudoeste 2.2 -- -- 92
2019-04-05 20:00:00 4 0 Calma 8 Noroeste 0.4 -- -- 91
2019-04-05 19:00:00 4.9 2 Noroeste 5 Oeste 0.2 -- -- 79
2019-04-05 18:00:00 5.1 3 Nordeste 4 Nordeste 0 -- -- 78
2019-04-05 17:00:00 5.2 0 Calma 6 Noroeste 0 -- -- 77
2019-04-05 16:00:00 5.4 2 Norte 16 Sudoeste 0 -- -- 75
2019-04-05 15:00:00 4.3 6 Sur 21 Sudoeste 0 -- -- 84
2019-04-05 14:00:00 4.8 10 Sudoeste 17 Sudoeste 0 -- -- 79
2019-04-05 13:00:00 4 6 Sudoeste 9 Sudoeste 0.2 -- -- 85
2019-04-05 12:00:00 1.4 2 Sudoeste 5 Sudoeste 0.2 -- -- 92
2019-04-05 11:00:00 1 4 Oeste 12 Sudoeste 0.2 -- -- 92
2019-04-05 10:00:00 1.8 8 Sudoeste 18 Sudoeste 0 -- -- 82
2019-04-05 09:00:00 2.9 5 Sudoeste 13 Sudoeste 0 -- -- 64
2019-04-05 08:00:00 1.5 2 Sudeste 8 Sudoeste 0 -- -- 73
2019-04-05 07:00:00 1 4 Sur 9 Sudeste 0 -- -- 73
2019-04-05 06:00:00 0.6 8 Sudoeste 12 Sudoeste 0 -- -- 76
2019-04-05 05:00:00 0.3 4 Oeste 8 Sudoeste 0 -- -- 78
2019-04-05 04:00:00 -0.1 0 Calma 4 Sudeste 0 -- -- 80
2019-04-05 03:00:00 -0.3 3 Sudeste 5 Oeste 0 -- -- 79
2019-04-05 02:00:00 -0.4 3 Sudeste 6 Nordeste 0 -- -- 78
2019-04-05 01:00:00 -1.2 4 Sudoeste 9 Sudoeste 0 -- -- 78
2019-04-05 00:00:00 -0.3 3 Este 5 Sudeste 0 -- -- 74
2019-04-04 23:00:00 0.2 2 Nordeste 7 Sudeste 0 -- -- 76
2019-04-04 22:00:00 1.9 2 Este 12 Sudoeste 0 -- -- 65
2019-04-04 21:00:00 3.9 2 Sudeste 14 Sudoeste 0 -- -- 55
2019-04-04 20:00:00 5.8 5 Sur 28 Sudoeste 0 -- -- 46
2019-04-04 19:00:00 7.2 16 Sudoeste 28 Sur 0 -- -- 41
2019-04-04 18:00:00 8.8 11 Sudoeste 26 Sudoeste 0 -- -- 33
2019-04-04 17:00:00 9.8 18 Sudoeste 30 Sudoeste 0 -- -- 30
2019-04-04 16:00:00 8.9 13 Sur 30 Oeste 0 -- -- 33
2019-04-04 15:00:00 9.3 15 Sudoeste 30 Sudoeste 0 -- -- 33
2019-04-04 14:00:00 9.4 6 Sur 21 Sudoeste 0 -- -- 31
2019-04-04 13:00:00 7.4 9 Sudoeste 18 Sudoeste 0 -- -- 35
2019-04-04 12:00:00 7.2 5 Sudeste 12 Nordeste 0 -- -- 30
2019-04-04 11:00:00 4.9 2 Sudeste 9 Este 0 -- -- 46
2019-04-04 10:00:00 0.2 5 Este 9 Este 0 -- -- 68
2019-04-04 09:00:00 -4.3 0 Calma 6 Sudoeste 0 -- -- 90
2019-04-04 08:00:00 -5.6 0 Calma 5 Sudeste 0 -- -- 92
2019-04-04 07:00:00 -5.5 0 Calma 5 Sudeste 0 -- -- 93
2019-04-04 06:00:00 -4.8 2 Nordeste 8 Sudeste 0 -- -- 92
2019-04-04 05:00:00 -4.2 3 Sudeste 5 Oeste 0 -- -- 90
2019-04-04 04:00:00 -4.2 0 Calma 5 Sudeste 0 -- -- 89
2019-04-04 03:00:00 -3.4 2 Sudoeste 5 Sudeste 0 -- -- 86
2019-04-04 02:00:00 -2.5 2 Sudeste 5 Este 0 -- -- 86
2019-04-04 01:00:00 -1.9 3 Noroeste 6 Oeste 0 -- -- 86
2019-04-04 00:00:00 -0.9 4 Oeste 6 Sudeste 0 -- -- 82
2019-04-03 23:00:00 0.7 3 Nordeste 7 Norte 0 -- -- 74
2019-04-03 22:00:00 3.7 6 Norte 22 Sudoeste 0 -- -- 60
2019-04-03 21:00:00 4.7 8 Sur 23 Sudeste 0 -- -- 54
2019-04-03 20:00:00 5.5 12 Sudeste 24 Sudeste 0 -- -- 55
2019-04-03 19:00:00 6.6 8 Sur 24 Sudeste 0 -- -- 48
2019-04-03 18:00:00 8.2 12 Sur 30 Sur 0 -- -- 44
2019-04-03 17:00:00 7.4 9 Sur 26 Sudeste 0 -- -- 56
2019-04-03 16:00:00 7.8 6 Sur 28 Sudeste 0 -- -- 59
2019-04-03 15:00:00 6.5 9 Sur 22 Sudeste 0 -- -- 69
2019-04-03 14:00:00 6.8 9 Sur 22 Sur 0 -- -- 69
2019-04-03 13:00:00 7.3 8 Sudoeste 28 Sudeste 0 -- -- 63
2019-04-03 12:00:00 6.8 11 Sudoeste 26 Sudoeste 0 -- -- 70
2019-04-03 11:00:00 5.8 2 Sudeste 7 Sur 0 -- -- 89
2019-04-03 10:00:00 4.6 3 Noroeste 8 Sudeste 0.8 -- -- 92
2019-04-03 09:00:00 3.8 3 Sudoeste 6 Oeste 1.2 -- -- 93
2019-04-03 08:00:00 3.5 4 Sudeste 9 Este 0.8 -- -- 95
2019-04-03 07:00:00 3.8 3 Este 6 Este 1.2 -- -- 96
2019-04-03 06:00:00 4 0 Calma 9 Oeste 0.2 -- -- 94
2019-04-03 05:00:00 3.9 0 Calma 10 Oeste 0 -- -- 93
2019-04-03 04:00:00 4 3 Sudeste 8 Oeste 0 -- -- 90
2019-04-03 03:00:00 3.7 3 Nordeste 6 Sudoeste 0 -- -- 88
2019-04-03 02:00:00 2.7 4 Sudeste 5 Oeste 0 -- -- 89
2019-04-03 01:00:00 3.2 2 Este 5 Sudeste 0 -- -- 87
2019-04-03 00:00:00 4 3 Este 4 Sudeste 0 -- -- 84
2019-04-02 23:00:00 4 2 Este 5 Sudeste 0 -- -- 83
2019-04-02 22:00:00 6.5 2 Este 8 Este 0 -- -- 76
2019-04-02 21:00:00 8.5 3 Este 19 Norte 0 -- -- 64
2019-04-02 20:00:00 9.1 10 Norte 24 Norte 0 -- -- 63
2019-04-02 19:00:00 9.4 14 Norte 26 Nordeste 0 -- -- 64
2019-04-02 18:00:00 11.4 6 Nordeste 14 Noroeste 0.2 -- -- 56
2019-04-02 17:00:00 12.6 8 Sudeste 21 Sudeste 0 -- -- 49
2019-04-02 16:00:00 10.9 8 Sudoeste 26 Sudoeste 0 -- -- 57
2019-04-02 15:00:00 13.4 11 Sudoeste 29 Sudoeste 0 -- -- 45
2019-04-02 14:00:00 13.8 16 Oeste 26 Oeste 0 -- -- 45
2019-04-02 13:00:00 13.2 11 Oeste 24 Oeste 0 -- -- 47
2019-04-02 12:00:00 12.2 6 Sudoeste 15 Sudoeste 0 -- -- 61
2019-04-02 11:00:00 11.5 3 Sudeste 6 Sudeste 0 -- -- 69
2019-04-02 10:00:00 9.3 0 Calma 5 Este 0 -- -- 80
2019-04-02 09:00:00 4.2 3 Sudoeste 5 Sudoeste 0 -- -- 98
2019-04-02 08:00:00 3.1 0 Calma 8 Sudoeste 0.2 -- -- 97
2019-04-02 07:00:00 4.9 3 Nordeste 5 Este 0 -- -- 97
2019-04-02 06:00:00 4.2 3 Sudeste 5 Sudeste 0 -- -- 97
2019-04-02 05:00:00 5 2 Este 4 Este 0 -- -- 96
2019-04-02 04:00:00 5.4 4 Sudoeste 5 Sudoeste 0 -- -- 96
2019-04-02 03:00:00 5.2 0 Calma 4 Oeste 0 -- -- 96
2019-04-02 02:00:00 5.5 2 Sur -- -- 0 -- -- 96
2019-04-02 01:00:00 5.3 0 Calma 3 Norte 0 -- -- 97
2019-04-02 00:00:00 5.5 3 Oeste 5 Sudoeste 0 -- -- 96
2019-04-01 23:00:00 5.9 2 Sudoeste 3 Oeste 0 -- -- 95
2019-04-01 22:00:00 6.2 0 Calma 3 Este 0 -- -- 95
2019-04-01 21:00:00 6.8 0 Calma 3 Sudeste 0 -- -- 94
2019-04-01 20:00:00 8.1 2 Este 13 Sudoeste 0.8 -- -- 90
2019-04-01 19:00:00 9.8 12 Sudoeste 20 Oeste 0 -- -- 74
2019-04-01 18:00:00 12.1 3 Sudoeste 13 Sudeste 0.2 -- -- 58
2019-04-01 17:00:00 11.9 4 Sudeste 8 Este 0 -- -- 60
2019-04-01 16:00:00 10.9 3 Norte 11 Este 0.8 -- -- 71
2019-04-01 15:00:00 10.3 4 Nordeste 15 Sudoeste 0.4 -- -- 78
2019-04-01 14:00:00 11.3 12 Sudoeste 23 Sudoeste 0 -- -- 57
2019-04-01 13:00:00 11.3 14 Sudoeste 24 Oeste 0 -- -- 60
2019-04-01 12:00:00 11.3 4 Sudoeste 10 Sudoeste 0 -- -- 58
2019-04-01 11:00:00 10.6 4 Oeste 9 Oeste 0 -- -- 57
2019-04-01 10:00:00 8.3 5 Sudoeste 8 Sudoeste 0 -- -- 68
2019-04-01 09:00:00 6.1 3 Norte 6 Norte 0 -- -- 76
2019-04-01 08:00:00 4.8 2 Sudoeste 9 Oeste 0 -- -- 82
2019-04-01 07:00:00 4.8 2 Sudeste 5 Sudeste 0 -- -- 81
2019-04-01 06:00:00 4.7 5 Sudoeste 8 Sudoeste 0 -- -- 80
2019-04-01 05:00:00 4.8 0 Calma 5 Sudoeste 0 -- -- 80
2019-04-01 04:00:00 5.5 3 Sudoeste 5 Sudoeste 0 -- -- 75
2019-04-01 03:00:00 5.3 0 Calma 5 Sudeste 0 -- -- 77
2019-04-01 02:00:00 5.7 0 Calma 6 Oeste 0 -- -- 74
2019-04-01 01:00:00 6 0 Calma 3 Sudeste 0 -- -- 74
2019-04-01 00:00:00 6.3 0 Calma 8 Sudoeste 0 -- -- 71
2019-03-31 23:00:00 7.4 4 Sudoeste 9 Sudoeste 0 -- -- 67
2019-03-31 22:00:00 8.5 5 Este 14 Sur 0 -- -- 60
2019-03-31 21:00:00 9.5 5 Sur 22 Sudoeste 0 -- -- 53
2019-03-31 20:00:00 11.1 11 Sudoeste 22 Sudoeste 0 -- -- 44
2019-03-31 19:00:00 12.3 15 Oeste 23 Oeste 0 -- -- 42
2019-03-31 18:00:00 13.4 15 Sudoeste 27 Sudoeste 0 -- -- 37
2019-03-31 17:00:00 15.2 10 Sudoeste 25 Sudoeste 0 -- -- 33
2019-03-31 16:00:00 14.8 16 Oeste 27 Oeste 0 -- -- 35
2019-03-31 15:00:00 14.2 14 Oeste 29 Oeste 0 -- -- 33
2019-03-31 14:00:00 14.1 18 Oeste 28 Sudoeste 0 -- -- 31
2019-03-31 13:00:00 13.6 8 Sudoeste 22 Sudoeste 0 -- -- 32
2019-03-31 12:00:00 11.5 2 Sudeste 8 Oeste 0 -- -- 37
2019-03-31 11:00:00 8.7 2 Oeste 6 Oeste 0 -- -- 45
2019-03-31 10:00:00 6.6 0 Calma 5 Este 0 -- -- 55
2019-03-31 09:00:00 -1 0 Calma 3 Noroeste 0 -- -- 84
2019-03-31 08:00:00 -2.7 0 Calma 5 Sudeste 0 -- -- 85
2019-03-31 07:00:00 -2.8 2 Sudoeste 5 Norte 0 -- -- 85
2019-03-31 06:00:00 -2 2 Este 8 Oeste 0 -- -- 88
2019-03-31 05:00:00 -1.1 0 Calma 6 Sudeste 0 -- -- 89
2019-03-31 03:00:00 0.2 3 Sur 6 Sudeste 0 -- -- 85
2019-03-31 01:00:00 1.3 2 Este 3 Sudeste 0 -- -- 82
2019-03-31 00:00:00 2.5 0 Calma 6 Nordeste 0 -- -- 78
2019-03-30 23:00:00 4.7 2 Sudeste 7 Noroeste 0 -- -- 73
2019-03-30 22:00:00 5.3 3 Nordeste 7 Norte 0 -- -- 70
2019-03-30 21:00:00 5.7 2 Este 5 Norte 0 -- -- 68
2019-03-30 20:00:00 7.6 3 Este 15 Sudoeste 0 -- -- 60
2019-03-30 19:00:00 10.5 10 Sudoeste 21 Sudoeste 0 -- -- 49
2019-03-30 18:00:00 12.9 14 Oeste 29 Sudoeste 0 -- -- 42
2019-03-30 17:00:00 14.2 18 Oeste 32 Sudoeste 0 -- -- 37
2019-03-30 16:00:00 15.1 15 Sudoeste 35 Sudoeste 0 -- -- 37
2019-03-30 15:00:00 14.9 15 Sudoeste 31 Sudoeste 0 -- -- 38
2019-03-30 14:00:00 13.6 16 Sudoeste 29 Sudoeste 0 -- -- 40
2019-03-30 13:00:00 13.1 14 Sudoeste 24 Sudoeste 0 -- -- 39
2019-03-30 12:00:00 12.3 13 Oeste 21 Sudoeste 0 -- -- 40
2019-03-30 11:00:00 12 4 Sudeste 9 Oeste 0 -- -- 47
2019-03-30 10:00:00 8.7 2 Oeste 5 Sur 0 -- -- 55
2019-03-30 09:00:00 4.7 3 Nordeste 4 Nordeste 0 -- -- 70
2019-03-30 08:00:00 -1.7 0 Calma 4 Sudeste 0 -- -- 92
2019-03-30 07:00:00 -2 0 Calma 4 Sudeste 0 -- -- 91
2019-03-30 06:00:00 -0.7 0 Calma 4 Sudeste 0 -- -- 90
2019-03-30 05:00:00 -1.7 0 Calma 4 Sudeste 0 -- -- 92
2019-03-30 04:00:00 -1.3 0 Calma 3 Oeste 0 -- -- 88
2019-03-30 03:00:00 -0.3 0 Calma 3 Sudeste 0 -- -- 87
2019-03-30 02:00:00 -1.2 0 Calma 5 Sudeste 0 -- -- 88
2019-03-30 01:00:00 0.3 3 Este 5 Este 0 -- -- 84
2019-03-30 00:00:00 1.6 3 Sudeste 5 Sudeste 0 -- -- 79
2019-03-29 23:00:00 3.2 0 Calma 4 Sudeste 0 -- -- 76
2019-03-29 22:00:00 4.3 0 Calma 5 Sudeste 0 -- -- 70
2019-03-29 21:00:00 5.1 0 Calma 7 Norte 0 -- -- 67
2019-03-29 20:00:00 5.9 3 Nordeste 7 Nordeste 0 -- -- 64
2019-03-29 19:00:00 8.4 0 Calma 10 Sudoeste 0 -- -- 58
2019-03-29 18:00:00 9.8 7 Oeste 15 Sudoeste 0 -- -- 48
2019-03-29 17:00:00 10.2 10 Sudoeste 16 Sur 0 -- -- 48
2019-03-29 16:00:00 10.1 10 Sudoeste 20 Sudoeste 0 -- -- 47
2019-03-29 15:00:00 10.7 11 Oeste 23 Oeste 0 -- -- 48
2019-03-29 14:00:00 10.3 11 Sudoeste 20 Sudoeste 0 -- -- 47
2019-03-29 13:00:00 10.2 14 Sudoeste 25 Oeste 0 -- -- 48
2019-03-29 12:00:00 10.6 2 Sudeste 6 Sudoeste 0 -- -- 47
2019-03-29 11:00:00 8.4 0 Calma 5 Sudoeste 0 -- -- 54
2019-03-29 10:00:00 6.7 2 Sudoeste 4 Este 0 -- -- 57
2019-03-29 09:00:00 5.2 3 Nordeste 13 Sudoeste 0 -- -- 64
2019-03-29 08:00:00 3 0 Calma 4 Este 0 -- -- 74
2019-03-29 07:00:00 1.8 0 Calma 5 Sudoeste 0 -- -- 77
2019-03-29 06:00:00 2.5 3 Norte 6 Sudoeste 0 -- -- 75
2019-03-29 05:00:00 2.1 2 Nordeste 9 Sudoeste 0 -- -- 75
2019-03-29 04:00:00 1.1 0 Calma 5 Sudeste 0 -- -- 79
2019-03-29 03:00:00 -1.2 2 Sur 5 Sudeste 0 -- -- 83
2019-03-29 02:00:00 -0.4 3 Sudeste 5 Sudeste 0 -- -- 82
2019-03-29 01:00:00 0.4 3 Sudoeste 5 Sudoeste 0 -- -- 75
2019-03-29 00:00:00 1.5 3 Sudeste 4 Sudeste 0 -- -- 73
2019-03-28 23:00:00 2.4 2 Sudeste 5 Sudeste 0 -- -- 70
2019-03-28 22:00:00 4.1 3 Este 6 Este 0 -- -- 62
2019-03-28 21:00:00 5 3 Este 15 Noroeste 0 -- -- 56
2019-03-28 20:00:00 9.7 10 Noroeste 23 Norte 0 -- -- 43
2019-03-28 19:00:00 11.4 9 Norte 22 Este 0 -- -- 37
2019-03-28 18:00:00 13.9 12 Nordeste 37 Este 0 -- -- 29
2019-03-28 17:00:00 14.6 22 Nordeste 44 Este 0 -- -- 25
2019-03-28 16:00:00 15.1 21 Nordeste 49 Este 0 -- -- 24
2019-03-28 15:00:00 15.2 27 Este 48 Este 0 -- -- 22
2019-03-28 14:00:00 15.7 17 Nordeste 46 Nordeste 0 -- -- 23
2019-03-28 13:00:00 16 14 Nordeste 33 Este 0 -- -- 22
2019-03-28 12:00:00 13.1 17 Sudoeste 28 Sudoeste 0 -- -- 29
2019-03-28 11:00:00 11.6 5 Oeste 9 Sudoeste 0 -- -- 32
2019-03-28 10:00:00 8.7 3 Sur 9 Nordeste 0 -- -- 33
2019-03-28 09:00:00 4.1 3 Este 7 Este 0 -- -- 43
2019-03-28 08:00:00 -3.7 2 Norte 6 Este 0 -- -- 70
2019-03-28 07:00:00 -4.1 2 Este 4 Sudeste 0 -- -- 68
2019-03-28 06:00:00 -3.7 2 Este 6 Sudeste 0 -- -- 66
2019-03-28 05:00:00 -3.3 2 Nordeste 5 Este 0 -- -- 67
2019-03-28 04:00:00 -2.8 0 Calma 9 Oeste 0 -- -- 64
2019-03-28 03:00:00 -1.3 3 Este 7 Sudeste 0 -- -- 59
2019-03-28 02:00:00 -0.8 3 Oeste 8 Sudeste 0 -- -- 61
2019-03-28 01:00:00 0.1 4 Este 6 Sudeste 0 -- -- 56
2019-03-28 00:00:00 1.4 3 Este 6 Sudeste 0 -- -- 51
2019-03-27 23:00:00 4.1 2 Norte 26 Este 0 -- -- 42
2019-03-27 22:00:00 7.8 8 Este 30 Norte 0 -- -- 30
2019-03-27 21:00:00 8.7 8 Nordeste 37 Este 0 -- -- 29
2019-03-27 20:00:00 8.9 20 Nordeste 50 Nordeste 0 -- -- 32
2019-03-27 19:00:00 9.4 21 Este 55 Este 0 -- -- 32
2019-03-27 18:00:00 11.7 28 Este 49 Este 0 -- -- 25
2019-03-27 17:00:00 12.5 23 Nordeste 46 Este 0 -- -- 23
2019-03-27 16:00:00 13.7 20 Nordeste 40 Este 0 -- -- 19
2019-03-27 15:00:00 14 18 Nordeste 49 Nordeste 0 -- -- 17
2019-03-27 14:00:00 13.6 24 Nordeste 53 Nordeste 0 -- -- 16
2019-03-27 13:00:00 13.4 26 Nordeste 52 Nordeste 0 -- -- 14
2019-03-27 12:00:00 13.2 24 Nordeste 54 Este 0 -- -- 15
2019-03-27 11:00:00 12.4 24 Nordeste 46 Nordeste 0 -- -- 17
2019-03-27 10:00:00 11.6 24 Nordeste 42 Este 0 -- -- 11
2019-03-27 09:00:00 3.7 10 Sudoeste 15 Sudoeste 0 -- -- 30
2019-03-27 08:00:00 -2.9 5 Sur 12 Oeste 0 -- -- 48
2019-03-27 07:00:00 -2.7 4 Sur 11 Oeste 0 -- -- 45
2019-03-27 06:00:00 -2 3 Nordeste 7 Sudeste 0 -- -- 40
2019-03-27 05:00:00 -1.1 4 Nordeste 19 Sudoeste 0 -- -- 38
2019-03-27 04:00:00 -0.7 12 Oeste 19 Oeste 0 -- -- 39
2019-03-27 03:00:00 -0.5 6 Sudoeste 14 Sudoeste 0 -- -- 35
2019-03-27 02:00:00 0.1 4 Este 11 Sudoeste 0 -- -- 31
2019-03-27 01:00:00 4.6 3 Oeste 33 Nordeste 0 -- -- 21
2019-03-27 00:00:00 7.8 13 Este 36 Este 0 -- -- 14
2019-03-26 23:00:00 8.1 15 Nordeste 48 Este 0 -- -- 13
2019-03-26 22:00:00 8.4 21 Nordeste 54 Este 0 -- -- 12
2019-03-26 21:00:00 8.4 25 Nordeste 57 Nordeste 0 -- -- 15
2019-03-26 20:00:00 8 32 Nordeste 67 Este 0 -- -- 20
2019-03-26 19:00:00 8.8 30 Nordeste 64 Este 0 -- -- 18
2019-03-26 18:00:00 10.2 24 Este 62 Nordeste 0 -- -- 17
2019-03-26 17:00:00 11.2 29 Este 55 Este 0 -- -- 20
2019-03-26 16:00:00 11.8 27 Nordeste 61 Este 0 -- -- 20
2019-03-26 15:00:00 12.6 28 Nordeste 56 Este 0 -- -- 13
2019-03-26 14:00:00 12.4 27 Nordeste 64 Este 0 -- -- 11
2019-03-26 13:00:00 11.7 28 Nordeste 68 Este 0 -- -- 9
2019-03-26 12:00:00 10.8 34 Nordeste 60 Nordeste 0 -- -- 8
2019-03-26 11:00:00 9.7 31 Nordeste 63 Nordeste 0 -- -- 7
2019-03-26 10:00:00 9.7 28 Nordeste 57 Nordeste 0 -- -- 6
2019-03-26 09:00:00 8.5 23 Nordeste 51 Norte 0 -- -- 7
2019-03-26 08:00:00 6.5 21 Este 58 Este 0 -- -- 7
2019-03-26 07:00:00 6.4 28 Este 54 Este 0 -- -- 10
2019-03-26 06:00:00 6.4 33 Este 59 Nordeste 0 -- -- 12
2019-03-26 05:00:00 6.6 27 Nordeste 52 Este 0 -- -- 16
2019-03-26 04:00:00 7.1 25 Nordeste 48 Este 0 -- -- 18
2019-03-26 03:00:00 6.7 20 Nordeste 43 Nordeste 0 -- -- 27
2019-03-26 02:00:00 6.6 18 Nordeste 45 Nordeste 0 -- -- 33
2019-03-26 01:00:00 5.8 21 Nordeste 57 Nordeste 0 -- -- 45
2019-03-26 00:00:00 5.9 30 Este 59 Nordeste 0 -- -- 48
2019-03-25 23:00:00 6.3 23 Nordeste 59 Nordeste 0 -- -- 46
2019-03-25 22:00:00 6.4 28 Nordeste 61 Nordeste 0 -- -- 50
2019-03-25 21:00:00 7 24 Nordeste 58 Este 0 -- -- 48
2019-03-25 20:00:00 7.6 30 Nordeste 65 Nordeste 0 -- -- 46
2019-03-25 19:00:00 8.8 32 Nordeste 57 Este 0 -- -- 41
2019-03-25 18:00:00 10.8 21 Nordeste 55 Este 0 -- -- 34
2019-03-25 17:00:00 11.7 24 Nordeste 46 Nordeste 0 -- -- 32
2019-03-25 16:00:00 12.6 28 Nordeste 51 Este 0 -- -- 28
2019-03-25 15:00:00 12.9 32 Nordeste 59 Este 0 -- -- 19
2019-03-25 14:00:00 13.9 28 Nordeste 57 Este 0 -- -- 21
2019-03-25 13:00:00 15.8 19 Nordeste 44 Este 0 -- -- 16
2019-03-25 12:00:00 16.1 17 Nordeste 40 Nordeste 0 -- -- 16
2019-03-25 11:00:00 15.1 18 Este 35 Este 0 -- -- 19
2019-03-25 10:00:00 12.4 4 Oeste 6 Sudoeste 0 -- -- 39
2019-03-25 09:00:00 7 0 Calma 6 Sudeste 0 -- -- 58
2019-03-25 08:00:00 -0.3 0 Calma 4 Sudeste 0 -- -- 82
2019-03-25 07:00:00 -0.7 0 Calma 4 Sudeste 0 -- -- 84
2019-03-25 06:00:00 0.2 2 Este 7 Sudeste 0 -- -- 82
2019-03-25 05:00:00 0.7 2 Nordeste 6 Este 0 -- -- 82
2019-03-25 04:00:00 1.1 2 Este 5 Sudeste 0 -- -- 79
2019-03-25 03:00:00 1.9 0 Calma 4 Este 0 -- -- 74
2019-03-25 02:00:00 3.5 0 Calma 10 Nordeste 0 -- -- 68
2019-03-25 01:00:00 7.5 4 Este 23 Nordeste 0 -- -- 55
2019-03-25 00:00:00 9.9 8 Nordeste 28 Este 0 -- -- 48
2019-03-24 23:00:00 10.3 7 Nordeste 28 Nordeste 0 -- -- 47
2019-03-24 22:00:00 11.3 17 Este 42 Nordeste 0 -- -- 44
2019-03-24 21:00:00 11.5 21 Nordeste 42 Nordeste 0 -- -- 46
2019-03-24 20:00:00 12.1 21 Nordeste 42 Este 0 -- -- 45
2019-03-24 19:00:00 13 21 Nordeste 45 Este 0 -- -- 42
2019-03-24 18:00:00 14.5 22 Nordeste 52 Nordeste 0 -- -- 39
2019-03-24 17:00:00 15.8 26 Nordeste 48 Nordeste 0 -- -- 34
2019-03-24 16:00:00 17 20 Nordeste 41 Este 0 -- -- 28
2019-03-24 15:00:00 17.2 20 Nordeste 35 Este 0 -- -- 24
2019-03-24 14:00:00 17.5 16 Nordeste 33 Nordeste 0 -- -- 21
2019-03-24 13:00:00 17.5 13 Nordeste 30 Este 0 -- -- 21
2019-03-24 12:00:00 16.6 12 Nordeste 24 Este 0 -- -- 19
2019-03-24 11:00:00 16.2 9 Nordeste 18 Nordeste 0 -- -- 22
2019-03-24 10:00:00 12.5 3 Este 6 Nordeste 0 -- -- 34
2019-03-24 09:00:00 6.3 2 Este 6 Norte 0 -- -- 55
2019-03-24 08:00:00 -0.9 2 Este 5 Este 0 -- -- 79
2019-03-24 07:00:00 -1.6 0 Calma 4 Sudeste 0 -- -- 81
2019-03-24 06:00:00 -0.9 0 Calma 5 Este 0 -- -- 79
2019-03-24 05:00:00 -1 0 Calma 4 Este 0 -- -- 81
2019-03-24 04:00:00 -0.2 0 Calma 4 Este 0 -- -- 80
2019-03-24 03:00:00 0.2 0 Calma 4 Sudeste 0 -- -- 78
2019-03-24 02:00:00 0.9 3 Sudeste 5 Sudeste 0 -- -- 77
2019-03-24 01:00:00 2.1 0 Calma 5 Sudoeste 0 -- -- 75
2019-03-24 00:00:00 2.5 0 Calma 5 Este 0 -- -- 73
2019-03-23 23:00:00 5 3 Este 5 Este 0 -- -- 63
2019-03-23 22:00:00 6.2 0 Calma 12 Sudoeste 0 -- -- 59
2019-03-23 21:00:00 9.4 6 Oeste 18 Nordeste 0 -- -- 49
2019-03-23 20:00:00 12.5 5 Nordeste 29 Nordeste 0 -- -- 40
2019-03-23 19:00:00 13.8 17 Nordeste 41 Este 0 -- -- 36
2019-03-23 18:00:00 15.4 23 Este 41 Este 0 -- -- 32
2019-03-23 17:00:00 15.5 22 Nordeste 42 Este 0 -- -- 31
2019-03-23 16:00:00 17.9 17 Nordeste 32 Este 0 -- -- 25
2019-03-23 15:00:00 19 9 Nordeste 23 Este 0 -- -- 24
2019-03-23 14:00:00 18.1 10 Nordeste 23 Nordeste 0 -- -- 24
2019-03-23 13:00:00 17.7 9 Oeste 22 Sudoeste 0 -- -- 25
2019-03-23 12:00:00 17 6 Sudoeste 13 Sudoeste 0 -- -- 24
2019-03-23 11:00:00 15.5 2 Sudeste 7 Sudoeste 0 -- -- 28
2019-03-23 10:00:00 12.4 0 Calma 4 Sudeste 0 -- -- 37
2019-03-23 09:00:00 5.6 2 Nordeste 5 Sudeste 0 -- -- 61
2019-03-23 08:00:00 -1 0 Calma 6 Sudeste 0 -- -- 85
2019-03-23 07:00:00 -1.5 0 Calma 4 Sudeste 0 -- -- 85
2019-03-23 06:00:00 -1.4 0 Calma 5 Sudeste 0 -- -- 86
2019-03-23 05:00:00 -0.7 2 Este 8 Sudeste 0 -- -- 86
2019-03-23 04:00:00 -0.7 0 Calma 5 Sudeste 0 -- -- 89
2019-03-23 03:00:00 -0.3 0 Calma 4 Sudeste 0 -- -- 86
2019-03-23 02:00:00 0 0 Calma 4 Este 0 -- -- 84
2019-03-23 01:00:00 0.9 0 Calma 3 Sudeste 0 -- -- 81
2019-03-23 00:00:00 2 0 Calma 5 Sudeste 0 -- -- 79
2019-03-22 23:00:00 3 0 Calma 4 Este 0 -- -- 75
2019-03-22 22:00:00 3.9 0 Calma 5 Este 0 -- -- 71
2019-03-22 21:00:00 5.5 0 Calma 6 Sudeste 0 -- -- 65
2019-03-22 20:00:00 7.8 3 Sudeste 11 Norte 0 -- -- 57
2019-03-22 19:00:00 10.4 2 Este 14 Sudoeste 0 -- -- 50
2019-03-22 18:00:00 14.5 10 Sudoeste 23 Sudoeste 0 -- -- 37
2019-03-22 17:00:00 16.9 10 Sudoeste 25 Sudoeste 0 -- -- 34
2019-03-22 16:00:00 16.1 10 Sudoeste 27 Sudoeste 0 -- -- 36
2019-03-22 15:00:00 16.5 16 Sudoeste 27 Sudoeste 0 -- -- 33
2019-03-22 14:00:00 16.6 14 Oeste 23 Sudoeste 0 -- -- 32
2019-03-22 13:00:00 15.7 6 Sudoeste 17 Sudoeste 0 -- -- 31
2019-03-22 12:00:00 14.4 4 Sudoeste 12 Sudoeste 0 -- -- 33
2019-03-22 11:00:00 13.3 3 Este 9 Sudeste 0 -- -- 33
2019-03-22 10:00:00 9.1 3 Este 6 Este 0 -- -- 43
2019-03-22 09:00:00 2.5 3 Este 5 Sudoeste 0 -- -- 64
2019-03-22 08:00:00 -3 2 Sudeste 4 Este 0 -- -- 82
2019-03-22 07:00:00 -4.1 0 Calma 5 Sudeste 0 -- -- 84
2019-03-22 06:00:00 -3.6 0 Calma 5 Sudeste 0 -- -- 81
2019-03-22 05:00:00 -3.5 0 Calma 4 Sudeste 0 -- -- 80
2019-03-22 04:00:00 -3.3 0 Calma 5 Sudeste 0 -- -- 80
2019-03-22 03:00:00 -2.5 2 Nordeste 6 Sudeste 0 -- -- 78
2019-03-22 02:00:00 -2.5 3 Nordeste 5 Sudeste 0 -- -- 78
2019-03-22 01:00:00 -1.9 3 Este 5 Sudeste 0 -- -- 74
2019-03-22 00:00:00 -1.7 0 Calma 4 Este 0 -- -- 72
2019-03-21 23:00:00 -0.8 0 Calma 6 Sudeste 0 -- -- 69
2019-03-21 22:00:00 1.3 3 Este 6 Sudeste 0 -- -- 60
2019-03-21 21:00:00 2.6 3 Este 9 Norte 0 -- -- 56
2019-03-21 20:00:00 3.8 0 Calma 13 Oeste 0 -- -- 53
2019-03-21 19:00:00 7.4 2 Nordeste 20 Sudoeste 0 -- -- 42
2019-03-21 18:00:00 12.1 12 Oeste 26 Sudoeste 0 -- -- 30
2019-03-21 17:00:00 13.4 15 Sudoeste 26 Sudoeste 0 -- -- 27
2019-03-21 16:00:00 13.8 13 Sudoeste 30 Sudoeste 0 -- -- 24
2019-03-21 15:00:00 13.9 17 Oeste 26 Oeste 0 -- -- 24
2019-03-21 14:00:00 13 15 Sudoeste 25 Sudoeste 0 -- -- 24
2019-03-21 13:00:00 11.8 14 Sudoeste 25 Oeste 0 -- -- 25
2019-03-21 12:00:00 10.5 14 Sudoeste 30 Sudoeste 0 -- -- 25
2019-03-21 11:00:00 9.3 3 Sudeste 14 Sudoeste 0 -- -- 25
2019-03-21 10:00:00 5.3 5 Sudoeste 11 Sudoeste 0 -- -- 35
2019-03-21 09:00:00 -0.2 0 Calma -- -- 0 -- -- 54
2019-03-21 08:00:00 -5.6 0 Calma -- -- 0 -- -- 73
2019-03-21 07:00:00 -6.4 0 Calma -- -- 0 -- -- 75
2019-03-21 06:00:00 -6.1 0 Calma -- -- 0 -- -- 73
2019-03-21 05:00:00 -5.5 0 Calma -- -- 0 -- -- 73
2019-03-21 04:00:00 -4.5 0 Calma 3 Sudoeste 0 -- -- 66
2019-03-21 03:00:00 -4.6 4 Oeste 8 Sudoeste 0 -- -- 70
2019-03-21 02:00:00 -4.3 0 Calma 4 Sudeste 0 -- -- 66
2019-03-21 01:00:00 -3.4 4 Sudeste 7 Sudeste 0 -- -- 63
2019-03-21 00:00:00 -1.6 2 Norte 7 Sudeste 0 -- -- 58
2019-03-20 23:00:00 0.8 0 Calma 21 Norte 0 -- -- 48
2019-03-20 22:00:00 4.8 13 Nordeste 45 Nordeste 0 -- -- 38
2019-03-20 21:00:00 5.3 19 Nordeste 52 Este 0 -- -- 39
2019-03-20 20:00:00 5.4 21 Nordeste 47 Nordeste 0 -- -- 42
2019-03-20 19:00:00 6.3 26 Este 50 Este 0 -- -- 40
2019-03-20 18:00:00 8.3 27 Nordeste 49 Este 0 -- -- 32
2019-03-20 17:00:00 9.7 27 Este 44 Nordeste 0 -- -- 20
2019-03-20 16:00:00 10.3 24 Este 45 Este 0 -- -- 18
2019-03-20 15:00:00 10.3 24 Nordeste 48 Este 0 -- -- 16
2019-03-20 14:00:00 9.9 26 Nordeste 42 Este 0 -- -- 17
2019-03-20 13:00:00 10.9 15 Nordeste 33 Nordeste 0 -- -- 13
2019-03-20 12:00:00 10.1 16 Nordeste 41 Este 0 -- -- 17
2019-03-20 11:00:00 8.6 18 Este 45 Este 0 -- -- 18
2019-03-20 10:00:00 6.7 27 Este 50 Este 0 -- -- 16
2019-03-20 09:00:00 5.6 17 Este 46 Este 0 -- -- 21
2019-03-20 08:00:00 3.5 12 Este 44 Este 0 -- -- 27
2019-03-20 07:00:00 2.8 21 Este 53 Nordeste 0 -- -- 41
2019-03-20 06:00:00 2.8 29 Nordeste 52 Este 0 -- -- 46
2019-03-20 05:00:00 3 21 Nordeste 56 Nordeste 0 -- -- 48
2019-03-20 04:00:00 3 24 Este 53 Este 0 -- -- 52
2019-03-20 03:00:00 3.4 26 Nordeste 49 Nordeste 0 -- -- 49
2019-03-20 02:00:00 3.4 21 Este 62 Este 0 -- -- 45
2019-03-20 01:00:00 3.1 19 Nordeste 44 Nordeste 0 -- -- 50
2019-03-20 00:00:00 3.3 21 Nordeste 40 Nordeste 0 -- -- 52
2019-03-19 23:00:00 3.3 14 Este 36 Este 0 -- -- 47
2019-03-19 22:00:00 3.2 17 Nordeste 34 Nordeste 0 -- -- 50
2019-03-19 21:00:00 2.9 16 Este 42 Este 0 -- -- 52
2019-03-19 20:00:00 2.8 15 Nordeste 37 Este 0 -- -- 59
2019-03-19 19:00:00 4.1 19 Nordeste 34 Nordeste 0 -- -- 53
2019-03-19 18:00:00 4.6 19 Nordeste 40 Este 0 -- -- 59
2019-03-19 17:00:00 6.6 16 Nordeste 44 Este 0 -- -- 46
2019-03-19 16:00:00 6.7 24 Nordeste 52 Este 0 -- -- 44
2019-03-19 15:00:00 7.3 27 Nordeste 53 Este 0 -- -- 39
2019-03-19 14:00:00 7.5 22 Nordeste 42 Este 0 -- -- 39
2019-03-19 13:00:00 6.6 22 Nordeste 42 Este 0 -- -- 44
2019-03-19 12:00:00 5 15 Nordeste 39 Este 0 -- -- 52
2019-03-19 11:00:00 5 13 Nordeste 34 Este 0 -- -- 52
2019-03-19 10:00:00 3.5 10 Nordeste 34 Este 0 -- -- 62
2019-03-19 09:00:00 4 18 Nordeste 35 Este 0 -- -- 54
2019-03-19 08:00:00 3.3 8 Nordeste 33 Nordeste 0 -- -- 61
2019-03-19 07:00:00 3.3 15 Nordeste 34 Nordeste 0 -- -- 59
2019-03-19 06:00:00 3.1 5 Sudeste 22 Este 0 -- -- 58
2019-03-19 05:00:00 2.1 0 Calma 7 Sudoeste 0 -- -- 62
2019-03-19 04:00:00 2.8 7 Sudoeste 20 Norte 0 -- -- 55
2019-03-19 03:00:00 2.1 3 Sudeste 8 Noroeste 0 -- -- 59
2019-03-19 02:00:00 1.7 2 Sudoeste 22 Norte 0 -- -- 57
2019-03-19 01:00:00 3.4 13 Norte 28 Nordeste 0 -- -- 47
2019-03-19 00:00:00 4.1 14 Nordeste 27 Norte 0 -- -- 39